Flight Track Log - Related Links

Times and Time Zones

All times are in EDT time to prevent confusion due to time zone crossing. See the RPA3392 flight status page for this flight to view local times or setup timezone preferences in your user account.

Time Position Orientation Groundspeed Altitude Reporting Facility
EDT Latitude Longitude Course Direction KTS MPH feet Rate Location/Type
Mon 05:44:57 PM 44.8333 -93.2000 115° Southeast 171 197 2,600  Level Minneapolis TRACON
Mon 05:45:17 PM 44.8325 -93.1800 93° East 184 212 3,000 1,778 Climbing Minneapolis Center
Mon 05:46:00 PM 44.7556 -92.7614 111° Southeast  Level Estimated
Mon 05:46:18 PM 44.8058 -93.1131 119° Southeast 239 275 5,000  Level Minneapolis Center
Mon 05:47:00 PM 44.7131 -92.6083 113° Southeast  Level Estimated
Mon 05:47:20 PM 44.7711 -92.9883 111° Southeast 285 328 8,700  Level Minneapolis Center
Mon 05:48:00 PM 44.6704 -92.4555 125° Southeast  Level Estimated
Mon 05:48:22 PM 44.7333 -92.8511 111° Southeast 319 367 10,800  Level Minneapolis Center
Mon 05:49:00 PM 44.6274 -92.3030 117° Southeast  Level Estimated
Mon 05:49:24 PM 44.6939 -92.7064 111° Southeast 392 451 12,300  Level Minneapolis Center
Mon 05:50:00 PM 44.5859 -92.1564 115° Southeast  Level Estimated
Mon 05:50:26 PM 44.6522 -92.5561 111° Southeast 416 479 14,200  Level Minneapolis Center
Mon 05:51:27 PM 44.6100 -92.4019 111° Southeast 425 489 16,700 2,829 Climbing Minneapolis Center
Mon 05:52:29 PM 44.5692 -92.2575 112° Southeast 401 461 20,000 2,516 Climbing Minneapolis Center
Mon 05:53:31 PM 44.5117 -92.1231 121° Southeast 403 464 21,900 1,742 Climbing Minneapolis Center
Mon 05:54:33 PM 44.4436 -91.9931 126° Southeast 413 475 23,600 1,403 Climbing Minneapolis Center
Mon 05:55:35 PM 44.3611 -91.8261 125° Southeast 434 499 24,800 1,268 Climbing Minneapolis Center
Mon 05:56:36 PM 44.3011 -91.6719 118° Southeast 450 518 26,200 1,156 Climbing Minneapolis Center
Mon 05:57:50 PM 44.2411 -91.5150 118° Southeast 457 526 27,400 1,059 Climbing Minneapolis Center
Mon 05:58:52 PM 44.1675 -91.3225 118° Southeast 467 537 28,600 1,258 Climbing Minneapolis Center
Mon 05:59:54 PM 44.1022 -91.1503 118° Southeast 472 543 30,000 1,258 Climbing Minneapolis Center
Mon 06:00:56 PM 44.0408 -90.9919 118° Southeast 470 541 31,200 1,065 Climbing Minneapolis Center
Mon 06:01:58 PM 43.9792 -90.8353 119° Southeast 467 537 32,200 1,065 Climbing Minneapolis Center
Mon 06:03:00 PM 43.9175 -90.6800 119° Southeast 462 532 33,400 927 Climbing Minneapolis Center
Mon 06:04:01 PM 43.8653 -90.5481 119° Southeast 461 531 34,100 683 Climbing Minneapolis Center
Mon 06:05:03 PM 43.8136 -90.3547 110° East 462 532 34,800 435 Climbing Minneapolis Center
Mon 06:06:05 PM 43.7750 -90.1511 105° East 470 541 35,000 97 Climbing Minneapolis Center
Mon 06:07:07 PM 43.7411 -89.9753 105° East 473 544 35,000  Level Minneapolis Center
Mon 06:08:09 PM 43.7083 -89.7978 104° East 475 547 35,000  Level Minneapolis Center
Mon 06:09:11 PM 43.6689 -89.5928 105° East 475 547 35,000  Level Minneapolis Center
Mon 06:10:13 PM 43.6347 -89.4172 105° East 474 545 35,000  Level Minneapolis Center
Mon 06:10:48 PM 43.6164 -89.3314 106° East 472 543 35,000  Level Chicago Center
Mon 06:11:50 PM 43.5828 -89.1578 105° East 470 541 35,000  Level Chicago Center
Mon 06:12:52 PM 43.5419 -88.9567 106° East 467 537 35,000  Level Chicago Center
Mon 06:13:54 PM 43.5069 -88.7822 105° East 471 542 35,000  Level Chicago Center
Mon 06:14:56 PM 43.4781 -88.6394 106° East 468 539 35,000  Level Chicago Center
Mon 06:15:58 PM 43.4381 -88.4497 106° East 475 547 35,000  Level Chicago Center
Mon 06:17:00 PM 43.3967 -88.2447 105° East 476 548 35,000  Level Chicago Center
Mon 06:18:02 PM 43.3603 -88.0714 106° East 472 543 35,000  Level Chicago Center
Mon 06:19:05 PM 43.3219 -87.8908 106° East 486 559 35,000  Level Chicago Center
Mon 06:20:07 PM 43.2839 -87.7086 106° East 494 568 35,000  Level Chicago Center
Mon 06:21:09 PM 43.2375 -87.4928 106° East 504 580 35,000  Level Chicago Center
Mon 06:22:11 PM 43.1958 -87.3033 107° East 507 583 35,000  Level Chicago Center
Mon 06:23:13 PM 43.1564 -87.1194 106° East 507 583 35,000  Level Chicago Center
Mon 06:24:15 PM 43.1153 -86.9378 107° East 502 578 35,000  Level Chicago Center
Mon 06:25:17 PM 43.0761 -86.7547 106° East 503 579 35,000  Level Chicago Center
Mon 06:26:19 PM 43.0339 -86.5703 107° East 509 586 35,000  Level Chicago Center
Mon 06:27:21 PM 42.9925 -86.3872 107° East 511 588 35,000  Level Chicago Center
Mon 06:28:23 PM 42.9419 -86.1692 108° East 511 588 35,000  Level Chicago Center
Mon 06:29:25 PM 42.9008 -85.9892 107° East 512 589 35,000  Level Chicago Center
Mon 06:30:27 PM 42.8597 -85.8100 107° East 509 586 35,000  Level Chicago Center
Mon 06:31:29 PM 42.8086 -85.5928 108° East 507 583 35,000  Level Chicago Center
Mon 06:32:32 PM 42.7586 -85.4153 111° Southeast 508 585 35,000  Level Chicago Center
Mon 06:33:34 PM 42.6994 -85.2453 115° Southeast 501 577 35,000  Level Chicago Center
Mon 06:34:36 PM 42.6406 -85.0800 116° Southeast 490 564 35,000  Level Chicago Center
Mon 06:35:38 PM 42.5842 -84.9192 115° Southeast 475 547 35,000  Level Chicago Center
Mon 06:36:40 PM 42.5267 -84.7575 116° Southeast 477 549 35,000  Level Chicago Center
Mon 06:37:42 PM 42.4567 -84.5642 116° Southeast 479 551 35,000  Level Chicago Center
Mon 06:38:10 PM 42.4272 -84.4908 119° Southeast 475 547 35,000  Level Cleveland Center
Mon 06:39:10 PM 42.3681 -84.3269 116° Southeast 480 552 35,000  Level Cleveland Center
Mon 06:40:10 PM 42.3083 -84.1689 117° Southeast 480 552 35,000  Level Cleveland Center
Mon 06:41:09 PM 42.2508 -84.0083 116° Southeast 480 552 35,000  Level Cleveland Center
Mon 06:42:10 PM 42.1889 -83.8453 117° Southeast 480 552 35,000  Level Cleveland Center
Mon 06:43:09 PM 42.1286 -83.6825 116° Southeast 480 552 35,000  Level Cleveland Center
Mon 06:44:09 PM 42.0683 -83.5203 117° Southeast 480 552 35,000  Level Cleveland Center
Mon 06:45:10 PM 41.9992 -83.3689 122° Southeast 478 550 35,000  Level Cleveland Center
Mon 06:46:09 PM 41.9211 -83.2231 126° Southeast 478 550 35,000  Level Cleveland Center
Mon 06:47:09 PM 41.8453 -83.0778 125° Southeast 483 556 35,000  Level Cleveland Center
Mon 06:48:09 PM 41.7650 -82.9356 127° Southeast 483 556 35,000  Level Cleveland Center
Mon 06:49:10 PM 41.6672 -82.8097 136° Southeast 483 556 35,000  Level Cleveland Center
Mon 06:50:10 PM 41.5822 -82.6764 130° Southeast 472 543 35,000  Level Cleveland Center
Mon 06:51:10 PM 41.4972 -82.5378 129° Southeast 480 552 35,000  Level Cleveland Center
Mon 06:52:10 PM 41.4242 -82.4136 128° Southeast 485 558 35,000  Level Cleveland Center
Mon 06:53:09 PM 41.3386 -82.2756 130° Southeast 485 558 35,000  Level Cleveland Center
Mon 06:54:09 PM 41.2533 -82.1325 128° Southeast 485 558 35,000  Level Cleveland Center
Mon 06:55:09 PM 41.1736 -81.9928 127° Southeast 479 551 35,000  Level Cleveland Center
Mon 06:56:09 PM 41.0856 -81.8586 131° Southeast 479 551 35,000  Level Cleveland Center
Mon 06:57:09 PM 41.0036 -81.7222 128° Southeast 479 551 35,000  Level Cleveland Center
Mon 06:58:10 PM 40.9175 -81.5861 130° Southeast 479 551 35,000  Level Cleveland Center
Mon 06:59:09 PM 40.8350 -81.4531 129° Southeast 479 551 35,000  Level Cleveland Center
Mon 07:00:09 PM 40.7506 -81.3175 129° Southeast 479 551 35,000  Level Cleveland Center
Mon 07:01:09 PM 40.6658 -81.1825 130° Southeast 479 551 35,000  Level Cleveland Center
Mon 07:02:09 PM 40.5769 -81.0342 128° Southeast 479 551 35,000  Level Cleveland Center
Mon 07:03:09 PM 40.4919 -80.8997 130° Southeast 479 551 35,000  Level Cleveland Center
Mon 07:04:10 PM 40.4067 -80.7658 130° Southeast 479 551 35,000  Level Cleveland Center
Mon 07:05:09 PM 40.3194 -80.6294 130° Southeast 479 551 35,000  Level Cleveland Center
Mon 07:06:09 PM 40.2361 -80.4961 129° Southeast 479 551 35,000  Level Cleveland Center
Mon 07:07:09 PM 40.1483 -80.3603 130° Southeast 479 551 35,000 -450 Level Cleveland Center
Mon 07:08:09 PM 40.0603 -80.2278 131° Southeast 479 551 34,100 -1,000 Descending Cleveland Center
Mon 07:09:09 PM 39.9764 -80.0956 130° Southeast 479 551 33,000 -434 Descending Cleveland Center
Mon 07:10:41 PM 39.8531 -79.9108 131° Southeast 471 542 33,000  Level Washington Center
Mon 07:11:42 PM 39.7681 -79.7786 130° Southeast 476 548 33,000 -555 Level Washington Center
Mon 07:12:40 PM 39.6811 -79.6442 130° Southeast 476 548 31,900 -1,831 Descending Washington Center
Mon 07:13:40 PM 39.5936 -79.5153 131° Southeast 476 548 29,400 -2,430 Descending Washington Center
Mon 07:14:41 PM 39.5061 -79.3814 130° Southeast 476 548 27,000 -1,190 Descending Washington Center
Mon 07:15:41 PM 39.4086 -79.2367 131° Southeast 476 548 27,000  Level Washington Center
Mon 07:16:40 PM 39.3247 -79.1117 131° Southeast 475 547 27,000  Level Washington Center
Mon 07:17:40 PM 39.2408 -78.9817 130° Southeast 475 547 27,000 -893 Level Washington Center
Mon 07:18:41 PM 39.2117 -78.8303 104° East 448 516 25,200 -2,874 Descending Washington Center
Mon 07:19:39 PM 39.1950 -78.6769 98° East 430 495 21,300 -2,824 Descending Washington Center
Mon 07:20:40 PM 39.1817 -78.5369 97° East 413 475 19,600 -1,785 Descending Washington Center
Mon 07:21:40 PM 39.1683 -78.4028 97° East 396 456 17,700 -1,686 Descending Washington Center
Mon 07:22:41 PM 39.1400 -78.2758 106° East 380 437 16,200 -1,240 Descending Washington Center
Mon 07:23:41 PM 39.1092 -78.1489 107° East 368 423 15,200 -1,050 Descending Washington Center
Mon 07:24:41 PM 39.0786 -78.0247 108° East 368 423 14,100 -992 Descending Washington Center
Mon 07:25:42 PM 39.0533 -77.9278 109° East 362 417 13,200 -1,311 Descending Washington Center
Mon 07:26:40 PM 39.0203 -77.8011 109° East 345 397 11,500 -1,119 Descending Washington Center
Mon 07:27:40 PM 38.9931 -77.6908 108° East 311 358 11,000 -643 Descending Washington Center
Mon 07:28:32 PM 38.9667 -77.6000 110° East 298 343 10,300 -1,311 Descending Potomac TRACON
Mon 07:29:39 PM 38.9500 -77.4833 100° East 296 341 8,400 -1,606 Descending Potomac TRACON
Mon 07:30:39 PM 38.9833 -77.4000 63° Northeast 265 305 6,900 -1,250 Descending Potomac TRACON
Mon 07:31:39 PM 39.0000 -77.3167 76° East 217 250 5,900 -939 Descending Potomac TRACON
Mon 07:32:34 PM 39.0167 -77.2667 67° East 192 221 5,100 -991 Descending Potomac TRACON
Mon 07:33:34 PM 39.0000 -77.2167 113° Southeast 149 171 4,000 -1,050 Descending Potomac TRACON
Mon 07:34:34 PM 38.9833 -77.1667 113° Southeast 142 163 3,000 -626 Descending Potomac TRACON
Mon 07:35:29 PM 38.9667 -77.1500 142° Southeast 117 135 2,800 -218 Descending Potomac TRACON

Login

Don't have an account? Register now (free) for customized features, flight alerts, and more!